sensor_id;sensor_type;location;lat;lon;timestamp;P1;durP1;ratioP1;P2;durP2;ratioP2
44987;SDS011;35735;52.226;21.254;2022-12-11T00:02:04;45.15;;;24.85;;
44987;SDS011;35735;52.226;21.254;2022-12-11T00:07:04;45.00;;;24.37;;
44987;SDS011;35735;52.226;21.254;2022-12-11T00:12:05;49.55;;;25.45;;
44987;SDS011;35735;52.226;21.254;2022-12-11T00:17:05;47.33;;;24.17;;
44987;SDS011;35735;52.226;21.254;2022-12-11T00:22:06;48.85;;;25.50;;
44987;SDS011;35735;52.226;21.254;2022-12-11T00:27:07;44.88;;;24.20;;
44987;SDS011;35735;52.226;21.254;2022-12-11T00:32:07;44.90;;;23.50;;
44987;SDS011;35735;52.226;21.254;2022-12-11T00:37:08;41.58;;;22.67;;
44987;SDS011;35735;52.226;21.254;2022-12-11T00:42:09;39.47;;;22.02;;
44987;SDS011;35735;52.226;21.254;2022-12-11T00:47:09;39.97;;;21.80;;
44987;SDS011;35735;52.226;21.254;2022-12-11T00:52:10;36.60;;;19.77;;
44987;SDS011;35735;52.226;21.254;2022-12-11T00:57:10;37.35;;;20.30;;
44987;SDS011;35735;52.226;21.254;2022-12-11T01:02:11;37.30;;;21.62;;
44987;SDS011;35735;52.226;21.254;2022-12-11T01:07:11;47.75;;;24.42;;
44987;SDS011;35735;52.226;21.254;2022-12-11T01:12:12;51.95;;;26.00;;
44987;SDS011;35735;52.226;21.254;2022-12-11T01:17:12;51.37;;;26.15;;
44987;SDS011;35735;52.226;21.254;2022-12-11T01:22:13;53.33;;;25.20;;
44987;SDS011;35735;52.226;21.254;2022-12-11T01:27:14;48.05;;;25.12;;
44987;SDS011;35735;52.226;21.254;2022-12-11T01:32:14;46.63;;;24.42;;
44987;SDS011;35735;52.226;21.254;2022-12-11T01:37:15;45.97;;;22.90;;
44987;SDS011;35735;52.226;21.254;2022-12-11T01:42:16;49.67;;;24.35;;
44987;SDS011;35735;52.226;21.254;2022-12-11T01:47:19;50.05;;;24.25;;
44987;SDS011;35735;52.226;21.254;2022-12-11T01:52:20;49.88;;;25.35;;
44987;SDS011;35735;52.226;21.254;2022-12-11T01:57:21;51.47;;;24.37;;
44987;SDS011;35735;52.226;21.254;2022-12-11T02:02:23;52.33;;;25.00;;
44987;SDS011;35735;52.226;21.254;2022-12-11T02:07:29;44.58;;;21.35;;
44987;SDS011;35735;52.226;21.254;2022-12-11T02:12:53;47.67;;;22.10;;
44987;SDS011;35735;52.226;21.254;2022-12-11T02:34:07;38.05;;;18.98;;
44987;SDS011;35735;52.226;21.254;2022-12-11T02:39:15;35.40;;;17.83;;
44987;SDS011;35735;52.226;21.254;2022-12-11T02:44:18;41.35;;;19.55;;
44987;SDS011;35735;52.226;21.254;2022-12-11T02:49:25;45.38;;;22.02;;
44987;SDS011;35735;52.226;21.254;2022-12-11T02:54:29;41.67;;;19.83;;
44987;SDS011;35735;52.226;21.254;2022-12-11T02:59:33;41.80;;;18.90;;
44987;SDS011;35735;52.226;21.254;2022-12-11T03:04:38;41.65;;;20.35;;
44987;SDS011;35735;52.226;21.254;2022-12-11T03:09:41;39.67;;;19.77;;
44987;SDS011;35735;52.226;21.254;2022-12-11T03:14:44;38.92;;;19.20;;
44987;SDS011;35735;52.226;21.254;2022-12-11T03:19:51;38.92;;;19.00;;
44987;SDS011;35735;52.226;21.254;2022-12-11T03:25:17;37.47;;;19.17;;
44987;SDS011;35735;52.226;21.254;2022-12-11T03:30:22;38.55;;;18.60;;
44987;SDS011;35735;52.226;21.254;2022-12-11T03:35:32;39.42;;;19.35;;
44987;SDS011;35735;52.226;21.254;2022-12-11T03:40:38;45.83;;;21.58;;
44987;SDS011;35735;52.226;21.254;2022-12-11T03:45:42;40.42;;;20.48;;
44987;SDS011;35735;52.226;21.254;2022-12-11T03:50:44;48.67;;;22.45;;
44987;SDS011;35735;52.226;21.254;2022-12-11T03:55:47;44.08;;;20.23;;
44987;SDS011;35735;52.226;21.254;2022-12-11T04:00:49;45.03;;;22.00;;
44987;SDS011;35735;52.226;21.254;2022-12-11T04:05:50;47.62;;;23.40;;
44987;SDS011;35735;52.226;21.254;2022-12-11T04:10:53;48.10;;;23.23;;
44987;SDS011;35735;52.226;21.254;2022-12-11T04:15:53;43.85;;;21.15;;
44987;SDS011;35735;52.226;21.254;2022-12-11T04:20:54;47.95;;;23.30;;
44987;SDS011;35735;52.226;21.254;2022-12-11T04:26:09;47.03;;;22.87;;
44987;SDS011;35735;52.226;21.254;2022-12-11T04:31:14;47.97;;;23.85;;
44987;SDS011;35735;52.226;21.254;2022-12-11T04:36:18;49.35;;;23.20;;
44987;SDS011;35735;52.226;21.254;2022-12-11T04:41:18;46.95;;;21.37;;
44987;SDS011;35735;52.226;21.254;2022-12-11T04:46:20;41.10;;;21.10;;
44987;SDS011;35735;52.226;21.254;2022-12-11T04:51:22;40.58;;;21.45;;
44987;SDS011;35735;52.226;21.254;2022-12-11T04:56:23;41.20;;;20.75;;
44987;SDS011;35735;52.226;21.254;2022-12-11T05:01:23;36.72;;;19.08;;
44987;SDS011;35735;52.226;21.254;2022-12-11T05:06:24;34.80;;;18.37;;
44987;SDS011;35735;52.226;21.254;2022-12-11T05:11:24;33.60;;;17.80;;
44987;SDS011;35735;52.226;21.254;2022-12-11T05:16:25;33.40;;;17.90;;
44987;SDS011;35735;52.226;21.254;2022-12-11T05:21:25;33.05;;;18.42;;
44987;SDS011;35735;52.226;21.254;2022-12-11T05:26:26;34.65;;;18.55;;
44987;SDS011;35735;52.226;21.254;2022-12-11T05:31:27;35.60;;;18.48;;
44987;SDS011;35735;52.226;21.254;2022-12-11T05:36:29;31.85;;;17.85;;
44987;SDS011;35735;52.226;21.254;2022-12-11T05:41:31;31.62;;;17.83;;
44987;SDS011;35735;52.226;21.254;2022-12-11T05:46:32;29.25;;;16.77;;
44987;SDS011;35735;52.226;21.254;2022-12-11T05:51:33;30.60;;;15.88;;
44987;SDS011;35735;52.226;21.254;2022-12-11T05:56:34;31.60;;;16.95;;
44987;SDS011;35735;52.226;21.254;2022-12-11T06:01:37;45.00;;;22.65;;
44987;SDS011;35735;52.226;21.254;2022-12-11T06:06:39;27.67;;;15.55;;
44987;SDS011;35735;52.226;21.254;2022-12-11T06:11:40;36.58;;;20.73;;
44987;SDS011;35735;52.226;21.254;2022-12-11T06:16:41;33.60;;;18.27;;
44987;SDS011;35735;52.226;21.254;2022-12-11T06:21:41;35.00;;;19.50;;
44987;SDS011;35735;52.226;21.254;2022-12-11T06:26:42;31.58;;;17.75;;
44987;SDS011;35735;52.226;21.254;2022-12-11T06:31:42;35.95;;;18.75;;
44987;SDS011;35735;52.226;21.254;2022-12-11T06:36:43;30.40;;;16.95;;
44987;SDS011;35735;52.226;21.254;2022-12-11T06:41:43;32.60;;;15.65;;
44987;SDS011;35735;52.226;21.254;2022-12-11T06:46:44;26.35;;;15.07;;
44987;SDS011;35735;52.226;21.254;2022-12-11T06:51:44;23.05;;;13.60;;
44987;SDS011;35735;52.226;21.254;2022-12-11T06:56:45;24.15;;;14.20;;
44987;SDS011;35735;52.226;21.254;2022-12-11T07:01:46;29.55;;;15.65;;
44987;SDS011;35735;52.226;21.254;2022-12-11T07:06:46;25.00;;;14.73;;
44987;SDS011;35735;52.226;21.254;2022-12-11T07:11:50;27.15;;;16.05;;
44987;SDS011;35735;52.226;21.254;2022-12-11T07:16:51;26.15;;;14.35;;
44987;SDS011;35735;52.226;21.254;2022-12-11T07:21:52;27.58;;;15.38;;
44987;SDS011;35735;52.226;21.254;2022-12-11T07:26:52;25.65;;;15.18;;
44987;SDS011;35735;52.226;21.254;2022-12-11T07:31:53;25.02;;;13.75;;
44987;SDS011;35735;52.226;21.254;2022-12-11T07:36:53;22.58;;;12.93;;
44987;SDS011;35735;52.226;21.254;2022-12-11T07:41:54;20.12;;;11.57;;
44987;SDS011;35735;52.226;21.254;2022-12-11T07:46:54;25.17;;;13.60;;
44987;SDS011;35735;52.226;21.254;2022-12-11T07:51:55;19.60;;;12.05;;
44987;SDS011;35735;52.226;21.254;2022-12-11T07:56:55;22.23;;;12.60;;
44987;SDS011;35735;52.226;21.254;2022-12-11T08:01:56;27.05;;;13.98;;
44987;SDS011;35735;52.226;21.254;2022-12-11T08:06:56;24.63;;;13.52;;
44987;SDS011;35735;52.226;21.254;2022-12-11T08:11:57;27.87;;;14.82;;
44987;SDS011;35735;52.226;21.254;2022-12-11T08:16:58;28.65;;;14.07;;
44987;SDS011;35735;52.226;21.254;2022-12-11T08:21:58;25.60;;;13.77;;
44987;SDS011;35735;52.226;21.254;2022-12-11T08:26:59;23.92;;;13.90;;
44987;SDS011;35735;52.226;21.254;2022-12-11T08:31:59;25.55;;;14.27;;
44987;SDS011;35735;52.226;21.254;2022-12-11T08:37:00;24.70;;;13.98;;
44987;SDS011;35735;52.226;21.254;2022-12-11T08:42:00;26.55;;;13.68;;
44987;SDS011;35735;52.226;21.254;2022-12-11T08:47:01;22.35;;;13.40;;
44987;SDS011;35735;52.226;21.254;2022-12-11T08:52:03;28.33;;;14.63;;
44987;SDS011;35735;52.226;21.254;2022-12-11T08:57:04;27.05;;;14.20;;
44987;SDS011;35735;52.226;21.254;2022-12-11T09:02:05;25.02;;;14.87;;
44987;SDS011;35735;52.226;21.254;2022-12-11T09:07:05;27.37;;;15.07;;
44987;SDS011;35735;52.226;21.254;2022-12-11T09:12:06;23.98;;;13.38;;
44987;SDS011;35735;52.226;21.254;2022-12-11T09:17:07;26.65;;;14.40;;
44987;SDS011;35735;52.226;21.254;2022-12-11T09:22:07;26.27;;;13.90;;
44987;SDS011;35735;52.226;21.254;2022-12-11T09:27:08;27.77;;;15.15;;
44987;SDS011;35735;52.226;21.254;2022-12-11T09:32:08;28.25;;;15.38;;
44987;SDS011;35735;52.226;21.254;2022-12-11T09:37:09;32.53;;;17.00;;
44987;SDS011;35735;52.226;21.254;2022-12-11T09:42:13;26.77;;;15.48;;
44987;SDS011;35735;52.226;21.254;2022-12-11T09:58:20;25.85;;;14.10;;
44987;SDS011;35735;52.226;21.254;2022-12-11T10:03:33;28.27;;;15.95;;
44987;SDS011;35735;52.226;21.254;2022-12-11T10:09:25;23.87;;;13.55;;
44987;SDS011;35735;52.226;21.254;2022-12-11T10:14:46;21.08;;;12.52;;
44987;SDS011;35735;52.226;21.254;2022-12-11T10:20:23;21.87;;;12.82;;
44987;SDS011;35735;52.226;21.254;2022-12-11T10:25:31;20.55;;;11.98;;
44987;SDS011;35735;52.226;21.254;2022-12-11T10:36:20;23.87;;;13.90;;
44987;SDS011;35735;52.226;21.254;2022-12-11T10:41:32;25.15;;;13.38;;
44987;SDS011;35735;52.226;21.254;2022-12-11T10:46:35;26.02;;;14.25;;
44987;SDS011;35735;52.226;21.254;2022-12-11T10:51:36;25.92;;;14.32;;
44987;SDS011;35735;52.226;21.254;2022-12-11T10:56:36;25.45;;;14.25;;
44987;SDS011;35735;52.226;21.254;2022-12-11T11:01:37;24.55;;;15.10;;
44987;SDS011;35735;52.226;21.254;2022-12-11T11:06:37;24.65;;;14.07;;
44987;SDS011;35735;52.226;21.254;2022-12-11T11:11:38;24.25;;;13.18;;
44987;SDS011;35735;52.226;21.254;2022-12-11T11:16:39;22.98;;;13.50;;
44987;SDS011;35735;52.226;21.254;2022-12-11T11:21:53;19.83;;;12.40;;
44987;SDS011;35735;52.226;21.254;2022-12-11T11:26:57;21.00;;;12.15;;
44987;SDS011;35735;52.226;21.254;2022-12-11T11:31:59;18.85;;;11.40;;
44987;SDS011;35735;52.226;21.254;2022-12-11T11:37:21;19.83;;;12.20;;
44987;SDS011;35735;52.226;21.254;2022-12-11T11:53:26;17.58;;;10.68;;
44987;SDS011;35735;52.226;21.254;2022-12-11T11:58:36;18.58;;;10.57;;
44987;SDS011;35735;52.226;21.254;2022-12-11T12:03:42;17.58;;;10.93;;
44987;SDS011;35735;52.226;21.254;2022-12-11T12:08:45;18.75;;;11.55;;
44987;SDS011;35735;52.226;21.254;2022-12-11T12:24:45;19.62;;;11.20;;
44987;SDS011;35735;52.226;21.254;2022-12-11T12:35:10;19.08;;;11.38;;
44987;SDS011;35735;52.226;21.254;2022-12-11T12:45:36;16.73;;;10.25;;
44987;SDS011;35735;52.226;21.254;2022-12-11T12:50:45;19.23;;;11.18;;
44987;SDS011;35735;52.226;21.254;2022-12-11T12:55:48;18.37;;;11.05;;
44987;SDS011;35735;52.226;21.254;2022-12-11T13:00:49;16.60;;;10.38;;
44987;SDS011;35735;52.226;21.254;2022-12-11T13:05:57;18.12;;;11.18;;
44987;SDS011;35735;52.226;21.254;2022-12-11T13:11:01;18.00;;;10.60;;
44987;SDS011;35735;52.226;21.254;2022-12-11T13:26:34;18.17;;;10.90;;
44987;SDS011;35735;52.226;21.254;2022-12-11T13:31:35;20.25;;;11.30;;
44987;SDS011;35735;52.226;21.254;2022-12-11T13:36:38;19.80;;;11.40;;
44987;SDS011;35735;52.226;21.254;2022-12-11T13:41:42;17.67;;;10.90;;
44987;SDS011;35735;52.226;21.254;2022-12-11T13:46:48;17.70;;;10.45;;
44987;SDS011;35735;52.226;21.254;2022-12-11T13:51:51;20.08;;;11.88;;
44987;SDS011;35735;52.226;21.254;2022-12-11T13:56:55;17.77;;;11.20;;
44987;SDS011;35735;52.226;21.254;2022-12-11T14:02:21;19.42;;;11.90;;
44987;SDS011;35735;52.226;21.254;2022-12-11T14:07:34;22.40;;;13.38;;
44987;SDS011;35735;52.226;21.254;2022-12-11T14:12:38;18.58;;;11.18;;
44987;SDS011;35735;52.226;21.254;2022-12-11T14:17:46;17.48;;;11.27;;
44987;SDS011;35735;52.226;21.254;2022-12-11T14:22:48;20.35;;;12.23;;
44987;SDS011;35735;52.226;21.254;2022-12-11T14:27:52;23.73;;;13.35;;
44987;SDS011;35735;52.226;21.254;2022-12-11T14:32:56;20.92;;;11.40;;
44987;SDS011;35735;52.226;21.254;2022-12-11T14:38:00;19.90;;;11.65;;
44987;SDS011;35735;52.226;21.254;2022-12-11T14:43:08;20.35;;;12.13;;
44987;SDS011;35735;52.226;21.254;2022-12-11T14:48:19;19.52;;;11.70;;
44987;SDS011;35735;52.226;21.254;2022-12-11T14:53:26;18.60;;;11.65;;
44987;SDS011;35735;52.226;21.254;2022-12-11T14:58:36;19.02;;;11.75;;
44987;SDS011;35735;52.226;21.254;2022-12-11T15:03:42;16.90;;;10.63;;
44987;SDS011;35735;52.226;21.254;2022-12-11T15:08:43;16.87;;;10.93;;
44987;SDS011;35735;52.226;21.254;2022-12-11T15:13:54;16.73;;;10.68;;
44987;SDS011;35735;52.226;21.254;2022-12-11T15:18:57;17.30;;;10.18;;
44987;SDS011;35735;52.226;21.254;2022-12-11T15:23:58;17.12;;;10.45;;
44987;SDS011;35735;52.226;21.254;2022-12-11T15:29:06;17.62;;;11.27;;
44987;SDS011;35735;52.226;21.254;2022-12-11T15:34:41;15.77;;;10.25;;
44987;SDS011;35735;52.226;21.254;2022-12-11T15:39:56;17.70;;;10.27;;
44987;SDS011;35735;52.226;21.254;2022-12-11T15:44:59;15.25;;;10.35;;
44987;SDS011;35735;52.226;21.254;2022-12-11T15:50:06;14.90;;;9.50;;
44987;SDS011;35735;52.226;21.254;2022-12-11T15:55:15;17.98;;;11.35;;
44987;SDS011;35735;52.226;21.254;2022-12-11T16:00:17;13.70;;;8.88;;
44987;SDS011;35735;52.226;21.254;2022-12-11T16:05:19;14.23;;;8.63;;
44987;SDS011;35735;52.226;21.254;2022-12-11T16:10:20;24.48;;;12.07;;
44987;SDS011;35735;52.226;21.254;2022-12-11T16:15:21;26.83;;;13.38;;
44987;SDS011;35735;52.226;21.254;2022-12-11T16:20:21;25.17;;;13.57;;
44987;SDS011;35735;52.226;21.254;2022-12-11T16:25:22;24.85;;;13.70;;
44987;SDS011;35735;52.226;21.254;2022-12-11T16:30:23;32.30;;;15.45;;
44987;SDS011;35735;52.226;21.254;2022-12-11T16:35:25;25.95;;;12.85;;
44987;SDS011;35735;52.226;21.254;2022-12-11T16:40:28;26.40;;;14.10;;
44987;SDS011;35735;52.226;21.254;2022-12-11T16:45:28;21.85;;;13.70;;
44987;SDS011;35735;52.226;21.254;2022-12-11T16:50:29;37.00;;;15.05;;
44987;SDS011;35735;52.226;21.254;2022-12-11T16:55:30;17.27;;;10.95;;
44987;SDS011;35735;52.226;21.254;2022-12-11T17:00:30;16.85;;;10.73;;
44987;SDS011;35735;52.226;21.254;2022-12-11T17:05:31;20.17;;;11.75;;
44987;SDS011;35735;52.226;21.254;2022-12-11T17:10:31;23.65;;;11.88;;
44987;SDS011;35735;52.226;21.254;2022-12-11T17:15:33;26.62;;;13.35;;
44987;SDS011;35735;52.226;21.254;2022-12-11T17:20:33;23.38;;;11.45;;
44987;SDS011;35735;52.226;21.254;2022-12-11T17:25:42;25.62;;;13.02;;
44987;SDS011;35735;52.226;21.254;2022-12-11T17:30:44;24.80;;;12.57;;
44987;SDS011;35735;52.226;21.254;2022-12-11T17:35:45;25.08;;;12.80;;
44987;SDS011;35735;52.226;21.254;2022-12-11T17:40:45;18.85;;;10.73;;
44987;SDS011;35735;52.226;21.254;2022-12-11T17:45:47;20.52;;;10.68;;
44987;SDS011;35735;52.226;21.254;2022-12-11T17:50:50;22.73;;;13.02;;
44987;SDS011;35735;52.226;21.254;2022-12-11T17:55:51;19.67;;;12.30;;
44987;SDS011;35735;52.226;21.254;2022-12-11T18:00:53;22.85;;;12.65;;
44987;SDS011;35735;52.226;21.254;2022-12-11T18:05:55;21.75;;;12.70;;
44987;SDS011;35735;52.226;21.254;2022-12-11T18:10:56;22.92;;;13.98;;
44987;SDS011;35735;52.226;21.254;2022-12-11T18:16:05;21.75;;;13.57;;
44987;SDS011;35735;52.226;21.254;2022-12-11T18:21:11;22.73;;;13.52;;
44987;SDS011;35735;52.226;21.254;2022-12-11T18:26:15;22.37;;;13.32;;
44987;SDS011;35735;52.226;21.254;2022-12-11T18:31:17;22.02;;;13.13;;
44987;SDS011;35735;52.226;21.254;2022-12-11T18:36:20;21.12;;;13.18;;
44987;SDS011;35735;52.226;21.254;2022-12-11T18:41:21;20.17;;;12.35;;
44987;SDS011;35735;52.226;21.254;2022-12-11T18:46:22;22.95;;;13.15;;
44987;SDS011;35735;52.226;21.254;2022-12-11T18:51:22;20.85;;;13.02;;
44987;SDS011;35735;52.226;21.254;2022-12-11T18:56:23;20.60;;;12.10;;
44987;SDS011;35735;52.226;21.254;2022-12-11T19:01:24;21.15;;;12.63;;
44987;SDS011;35735;52.226;21.254;2022-12-11T19:06:27;22.83;;;13.15;;
44987;SDS011;35735;52.226;21.254;2022-12-11T19:11:29;23.25;;;13.25;;
44987;SDS011;35735;52.226;21.254;2022-12-11T19:16:32;21.00;;;13.25;;
44987;SDS011;35735;52.226;21.254;2022-12-11T19:21:36;22.80;;;12.95;;
44987;SDS011;35735;52.226;21.254;2022-12-11T19:26:37;23.02;;;13.07;;
44987;SDS011;35735;52.226;21.254;2022-12-11T19:31:38;22.23;;;12.55;;
44987;SDS011;35735;52.226;21.254;2022-12-11T19:36:38;19.70;;;11.88;;
44987;SDS011;35735;52.226;21.254;2022-12-11T19:41:39;18.62;;;11.38;;
44987;SDS011;35735;52.226;21.254;2022-12-11T19:46:40;19.48;;;11.70;;
44987;SDS011;35735;52.226;21.254;2022-12-11T19:51:41;22.83;;;13.55;;
44987;SDS011;35735;52.226;21.254;2022-12-11T19:56:42;19.30;;;12.18;;
44987;SDS011;35735;52.226;21.254;2022-12-11T20:01:44;21.35;;;12.95;;
44987;SDS011;35735;52.226;21.254;2022-12-11T20:06:46;20.30;;;12.75;;
44987;SDS011;35735;52.226;21.254;2022-12-11T20:11:47;23.30;;;14.18;;
44987;SDS011;35735;52.226;21.254;2022-12-11T20:16:48;22.37;;;14.10;;
44987;SDS011;35735;52.226;21.254;2022-12-11T20:21:49;25.48;;;15.00;;
44987;SDS011;35735;52.226;21.254;2022-12-11T20:26:51;25.65;;;14.30;;
44987;SDS011;35735;52.226;21.254;2022-12-11T20:31:53;24.65;;;15.15;;
44987;SDS011;35735;52.226;21.254;2022-12-11T20:36:53;22.27;;;14.40;;
44987;SDS011;35735;52.226;21.254;2022-12-11T20:41:54;23.95;;;14.63;;
44987;SDS011;35735;52.226;21.254;2022-12-11T20:46:54;21.37;;;14.18;;
44987;SDS011;35735;52.226;21.254;2022-12-11T20:51:55;22.08;;;13.88;;
44987;SDS011;35735;52.226;21.254;2022-12-11T20:56:55;23.60;;;14.87;;
44987;SDS011;35735;52.226;21.254;2022-12-11T21:01:56;25.75;;;15.55;;
44987;SDS011;35735;52.226;21.254;2022-12-11T21:06:56;23.62;;;14.18;;
44987;SDS011;35735;52.226;21.254;2022-12-11T21:11:57;20.67;;;13.50;;
44987;SDS011;35735;52.226;21.254;2022-12-11T21:16:58;22.52;;;13.45;;
44987;SDS011;35735;52.226;21.254;2022-12-11T21:21:59;23.33;;;13.35;;
44987;SDS011;35735;52.226;21.254;2022-12-11T21:27:00;20.85;;;13.80;;
44987;SDS011;35735;52.226;21.254;2022-12-11T21:32:00;20.12;;;12.85;;
44987;SDS011;35735;52.226;21.254;2022-12-11T21:37:01;22.60;;;12.80;;
44987;SDS011;35735;52.226;21.254;2022-12-11T21:42:02;21.33;;;13.00;;
44987;SDS011;35735;52.226;21.254;2022-12-11T21:47:02;21.73;;;12.82;;
44987;SDS011;35735;52.226;21.254;2022-12-11T21:52:03;21.70;;;12.95;;
44987;SDS011;35735;52.226;21.254;2022-12-11T21:57:04;19.15;;;12.85;;
44987;SDS011;35735;52.226;21.254;2022-12-11T22:02:04;20.73;;;12.13;;
44987;SDS011;35735;52.226;21.254;2022-12-11T22:07:05;18.75;;;11.38;;
44987;SDS011;35735;52.226;21.254;2022-12-11T22:12:06;18.35;;;11.40;;
44987;SDS011;35735;52.226;21.254;2022-12-11T22:17:06;16.65;;;11.00;;
44987;SDS011;35735;52.226;21.254;2022-12-11T22:22:07;17.80;;;10.45;;
44987;SDS011;35735;52.226;21.254;2022-12-11T22:27:07;17.42;;;10.70;;
44987;SDS011;35735;52.226;21.254;2022-12-11T22:32:08;16.55;;;11.07;;
44987;SDS011;35735;52.226;21.254;2022-12-11T22:37:09;18.77;;;11.02;;
44987;SDS011;35735;52.226;21.254;2022-12-11T22:42:09;16.40;;;10.48;;
44987;SDS011;35735;52.226;21.254;2022-12-11T22:47:10;16.70;;;10.30;;
44987;SDS011;35735;52.226;21.254;2022-12-11T22:52:10;16.10;;;10.77;;
44987;SDS011;35735;52.226;21.254;2022-12-11T22:57:11;15.10;;;10.43;;
44987;SDS011;35735;52.226;21.254;2022-12-11T23:02:11;17.73;;;10.43;;
44987;SDS011;35735;52.226;21.254;2022-12-11T23:07:12;16.02;;;10.23;;
44987;SDS011;35735;52.226;21.254;2022-12-11T23:12:12;17.95;;;11.48;;
44987;SDS011;35735;52.226;21.254;2022-12-11T23:17:13;16.77;;;11.12;;
44987;SDS011;35735;52.226;21.254;2022-12-11T23:22:13;15.25;;;10.30;;
44987;SDS011;35735;52.226;21.254;2022-12-11T23:27:14;18.05;;;10.70;;
44987;SDS011;35735;52.226;21.254;2022-12-11T23:32:15;18.95;;;11.18;;
44987;SDS011;35735;52.226;21.254;2022-12-11T23:37:15;16.55;;;10.63;;
44987;SDS011;35735;52.226;21.254;2022-12-11T23:42:16;19.05;;;11.55;;
44987;SDS011;35735;52.226;21.254;2022-12-11T23:47:16;20.90;;;12.37;;
44987;SDS011;35735;52.226;21.254;2022-12-11T23:52:17;18.25;;;12.00;;
44987;SDS011;35735;52.226;21.254;2022-12-11T23:57:17;19.48;;;11.80;;
